createdAt,value
2022-11-20T00:11:15.506Z,101471.25
2022-11-20T00:27:19.828Z,101392.75
2022-11-20T00:43:26.843Z,101496.22
2022-11-20T00:51:35.097Z,101484.63
2022-11-20T01:07:28.829Z,101394.72
2022-11-20T05:46:50.699Z,101338.66
2022-11-20T05:49:17.039Z,101336.06
2022-11-20T05:51:43.842Z,101348.16
2022-11-20T05:54:10.126Z,101349.13
2022-11-20T06:01:51.843Z,101361.63
2022-11-20T06:23:07.199Z,101374.06
2022-11-20T06:25:33.501Z,101380.25
2022-11-20T06:28:00.174Z,101371.25
2022-11-20T07:44:39.998Z,101339.31
2022-11-20T08:48:35.369Z,101304.47
2022-11-20T08:51:03.518Z,101309.34
2022-11-20T09:01:36.222Z,101312.16
2022-11-20T09:04:02.615Z,101302.59
2022-11-20T09:09:10.764Z,101303.94
2022-11-20T09:11:37.286Z,101304.50
2022-11-20T09:14:04.106Z,101292.44
2022-11-20T09:16:30.512Z,101303.16
2022-11-20T09:21:32.247Z,101290.22
2022-11-20T09:23:59.098Z,101285.31
2022-11-20T09:26:25.392Z,101280.66
2022-11-20T09:28:56.991Z,101273.31
2022-11-20T09:31:26.932Z,101264.47
2022-11-20T09:33:53.505Z,101265.97
2022-11-20T09:36:20.342Z,101265.22
2022-11-20T09:38:47.766Z,101264.59
2022-11-20T09:41:32.814Z,101254.03
2022-11-20T09:44:08.906Z,101249.88
2022-11-20T09:54:42.571Z,101243.16
2022-11-20T09:57:15.945Z,101248.94
2022-11-20T10:02:46.023Z,101249.34
2022-11-20T10:13:42.375Z,101220.69
2022-11-20T11:24:46.242Z,100996.59
2022-11-20T11:30:16.023Z,101060.84
2022-11-20T12:18:40.136Z,100994.47
2022-11-20T12:43:07.280Z,100962.53
2022-11-20T12:57:26.265Z,100908.72
2022-11-20T13:00:07.800Z,100913.81
2022-11-20T13:02:52.744Z,100907.34
2022-11-20T13:05:31.262Z,100902.00
2022-11-20T13:07:59.159Z,100907.44
2022-11-20T13:10:45.021Z,100900.19
2022-11-20T13:13:34.393Z,100899.00
2022-11-20T13:16:17.187Z,100899.81
2022-11-20T13:18:43.817Z,100887.63
2022-11-20T13:21:36.162Z,100870.75
2022-11-20T13:24:21.900Z,100875.75
2022-11-20T13:26:48.494Z,100868.09
2022-11-20T13:29:19.640Z,100857.50
2022-11-20T13:31:48.297Z,100867.22
2022-11-20T13:34:25.063Z,100875.06
2022-11-20T13:36:54.189Z,100867.22
2022-11-20T13:39:52.272Z,100856.44
2022-11-20T13:42:28.622Z,100847.31
2022-11-20T13:45:01.299Z,100830.81
2022-11-20T13:47:29.095Z,100844.47
2022-11-20T13:49:59.945Z,100832.09
2022-11-20T13:53:11.522Z,100836.53
2022-11-20T13:55:46.904Z,100831.22
2022-11-20T13:58:34.702Z,100838.28
2022-11-20T14:01:16.008Z,100846.09
2022-11-20T14:06:32.280Z,100832.94
2022-11-20T14:09:00.257Z,100821.31
2022-11-20T14:11:31.523Z,100823.22
2022-11-20T14:14:03.979Z,100822.28
2022-11-20T14:16:35.766Z,100799.97
2022-11-20T14:19:20.208Z,100768.72
2022-11-20T14:21:48.016Z,100751.06
2022-11-20T14:24:15.053Z,100761.47
2022-11-20T14:26:45.356Z,100770.16
2022-11-20T14:29:21.104Z,100786.50
2022-11-20T14:31:54.148Z,100776.63
2022-11-20T14:34:31.191Z,100761.28
2022-11-20T14:37:03.512Z,100749.06
2022-11-20T14:39:37.008Z,100754.03
2022-11-20T14:42:15.443Z,100753.06
2022-11-20T14:44:42.902Z,100739.91
2022-11-20T14:47:13.636Z,100747.94
2022-11-20T14:49:41.503Z,100744.38
2022-11-20T14:52:18.253Z,100735.34
2022-11-20T14:54:54.306Z,100732.47
2022-11-20T14:57:27.950Z,100726.47
2022-11-20T15:00:12.315Z,100732.69
2022-11-20T15:02:46.910Z,100722.94
2022-11-20T15:05:14.281Z,100722.00
2022-11-20T15:07:44.084Z,100724.56
2022-11-20T15:10:20.875Z,100711.31
2022-11-20T15:12:52.230Z,100706.81
2022-11-20T15:15:42.387Z,100703.22
2022-11-20T15:18:17.654Z,100701.31
2022-11-20T15:20:44.755Z,100698.75
2022-11-20T15:23:16.874Z,100699.31
2022-11-20T15:25:43.538Z,100693.97
2022-11-20T15:28:34.815Z,100689.56
2022-11-20T15:31:01.990Z,100690.44
2022-11-20T15:33:28.523Z,100680.44
2022-11-20T15:35:54.879Z,100676.03
2022-11-20T15:38:21.303Z,100676.13
2022-11-20T15:40:47.728Z,100667.94
2022-11-20T15:43:14.220Z,100657.16
2022-11-20T15:45:44.797Z,100658.88
2022-11-20T15:48:22.621Z,100655.16
2022-11-20T15:51:01.118Z,100640.66
2022-11-20T15:53:27.522Z,100635.41
2022-11-20T15:55:54.157Z,100608.81
2022-11-20T15:58:21.117Z,100608.50
2022-11-20T16:00:47.564Z,100605.84
2022-11-20T16:03:19.939Z,100601.81
2022-11-20T16:05:46.499Z,100595.34
2022-11-20T16:08:15.269Z,100583.88
2022-11-20T16:10:42.300Z,100585.50
2022-11-20T16:13:17.305Z,100587.13
2022-11-20T16:15:52.015Z,100577.41
2022-11-20T16:18:20.283Z,100573.00
2022-11-20T16:20:49.214Z,100573.38
2022-11-20T16:23:16.491Z,100556.38
2022-11-20T16:25:44.176Z,100566.63
2022-11-20T16:28:15.968Z,100556.16
2022-11-20T16:30:45.281Z,100557.13
2022-11-20T16:33:15.406Z,100561.94
2022-11-20T16:35:42.236Z,100540.47
2022-11-20T16:38:08.700Z,100538.00
2022-11-20T16:40:35.467Z,100543.91
2022-11-20T16:43:14.539Z,100542.97
2022-11-20T16:45:42.895Z,100538.28
2022-11-20T16:48:13.319Z,100522.63
2022-11-20T16:50:46.183Z,100512.59
2022-11-20T16:53:12.690Z,100512.50
2022-11-20T16:55:39.006Z,100505.34
2022-11-20T16:58:05.371Z,100495.00
2022-11-20T17:00:31.739Z,100498.63
2022-11-20T17:02:58.122Z,100491.56
2022-11-20T17:05:24.471Z,100500.56
2022-11-20T17:07:50.899Z,100484.53
2022-11-20T17:10:17.298Z,100492.63
2022-11-20T17:12:44.717Z,100489.34
2022-11-20T17:15:11.213Z,100484.09
2022-11-20T17:17:37.506Z,100483.38
2022-11-20T17:20:04.372Z,100489.03
2022-11-20T17:22:32.511Z,100496.50
2022-11-20T17:24:58.863Z,100492.84
2022-11-20T17:27:25.376Z,100488.38
2022-11-20T17:29:54.673Z,100492.03
2022-11-20T17:32:21.100Z,100486.56
2022-11-20T17:34:48.784Z,100489.44
2022-11-20T17:37:15.491Z,100478.56
2022-11-20T17:39:41.925Z,100489.91
2022-11-20T17:42:08.336Z,100486.13
2022-11-20T17:44:34.841Z,100489.78
2022-11-20T17:47:01.256Z,100495.44
2022-11-20T17:49:28.727Z,100499.06
2022-11-20T17:51:55.097Z,100491.38
2022-11-20T17:54:23.224Z,100505.38
2022-11-20T17:56:50.040Z,100496.72
2022-11-20T17:59:16.819Z,100504.75
2022-11-20T18:01:44.455Z,100499.56
2022-11-20T18:04:11.971Z,100503.66
2022-11-20T18:06:38.840Z,100497.88
2022-11-20T18:09:06.186Z,100503.97
2022-11-20T18:11:38.124Z,100496.91
2022-11-20T18:14:08.814Z,100510.81
2022-11-20T18:16:38.609Z,100513.94
2022-11-20T18:19:05.047Z,100513.41
2022-11-20T18:21:31.532Z,100500.56
2022-11-20T18:23:58.458Z,100502.47
2022-11-20T18:26:28.692Z,100513.81
2022-11-20T18:28:55.536Z,100500.97
2022-11-20T18:31:22.160Z,100511.34
2022-11-20T18:33:48.868Z,100522.97
2022-11-20T18:36:20.544Z,100520.63
2022-11-20T18:38:49.650Z,100521.69
2022-11-20T18:41:19.208Z,100517.94
2022-11-20T18:43:45.807Z,100522.97
2022-11-20T18:46:12.286Z,100522.44
2022-11-20T18:48:38.730Z,100534.94
2022-11-20T18:51:07.248Z,100529.78
2022-11-20T18:53:36.892Z,100521.88
2022-11-20T18:56:04.981Z,100534.94
2022-11-20T18:58:33.024Z,100539.09
2022-11-20T19:01:08.385Z,100539.22
2022-11-20T19:03:35.010Z,100534.25
2022-11-20T19:06:01.405Z,100532.41
2022-11-20T19:08:28.383Z,100532.72
2022-11-20T19:10:54.705Z,100532.81
2022-11-20T19:13:28.000Z,100538.38
2022-11-20T19:15:54.303Z,100536.97
2022-11-20T19:18:20.962Z,100534.13
2022-11-20T19:20:47.357Z,100540.94
2022-11-20T19:23:14.137Z,100534.19
2022-11-20T19:25:40.552Z,100528.00
2022-11-20T19:28:06.881Z,100530.66
2022-11-20T19:30:33.258Z,100521.69
2022-11-20T19:32:59.586Z,100515.38
2022-11-20T19:35:26.130Z,100516.34
2022-11-20T19:37:53.046Z,100507.81
2022-11-20T19:40:19.490Z,100501.81
2022-11-20T19:42:45.838Z,100512.59
2022-11-20T19:45:12.387Z,100514.63
2022-11-20T19:48:07.149Z,100532.56
2022-11-20T19:50:25.027Z,100531.84
2022-11-20T19:52:57.234Z,100532.69
2022-11-20T19:55:24.957Z,100539.00
2022-11-20T19:57:51.676Z,100534.41
2022-11-20T20:00:26.677Z,100540.47
2022-11-20T20:02:57.432Z,100538.88
2022-11-20T20:05:24.167Z,100534.31
2022-11-20T20:07:50.677Z,100541.44
2022-11-20T20:10:17.303Z,100544.88
2022-11-20T20:12:43.848Z,100542.41
2022-11-20T20:15:10.227Z,100547.66
2022-11-20T20:17:36.651Z,100548.31
2022-11-20T20:20:03.319Z,100543.72
2022-11-20T20:22:29.700Z,100550.78
2022-11-20T20:24:56.067Z,100548.31
2022-11-20T20:27:22.617Z,100563.38
2022-11-20T20:29:49.126Z,100567.78
2022-11-20T20:32:15.678Z,100562.72
2022-11-20T20:34:42.126Z,100574.91
2022-11-20T20:37:08.500Z,100566.81
2022-11-20T20:39:34.786Z,100578.47
2022-11-20T20:42:01.074Z,100583.69
2022-11-20T20:44:27.390Z,100574.91
2022-11-20T20:46:53.911Z,100572.34
2022-11-20T20:49:20.256Z,100568.72
2022-11-20T20:51:46.581Z,100569.47
2022-11-20T20:54:12.869Z,100570.53
2022-11-20T20:56:39.216Z,100568.50
2022-11-20T20:59:06.088Z,100558.56
2022-11-20T21:01:32.555Z,100563.59
2022-11-20T21:03:59.087Z,100563.47
2022-11-20T21:06:26.310Z,100572.25
2022-11-20T21:08:52.729Z,100566.03
2022-11-20T21:11:20.183Z,100582.41
2022-11-20T21:13:47.664Z,100586.16
2022-11-20T21:16:15.150Z,100581.97
2022-11-20T21:18:41.628Z,100586.16
2022-11-20T21:21:11.780Z,100599.06
2022-11-20T21:23:38.413Z,100601.75
2022-11-20T21:26:08.981Z,100598.84
2022-11-20T21:28:36.796Z,100606.13
2022-11-20T21:31:11.899Z,100604.22
2022-11-20T21:33:43.600Z,100596.94
2022-11-20T21:36:11.878Z,100603.06
2022-11-20T21:38:38.700Z,100593.09
2022-11-20T21:41:07.079Z,100598.66
2022-11-20T21:43:33.861Z,100588.63
2022-11-20T21:46:01.887Z,100592.06
2022-11-20T21:48:32.226Z,100596.31
2022-11-20T21:51:07.254Z,100592.69
2022-11-20T21:53:34.561Z,100595.59
2022-11-20T21:56:01.472Z,100598.16
2022-11-20T21:58:28.202Z,100606.94
2022-11-20T22:00:54.554Z,100616.53
2022-11-20T22:03:21.297Z,100620.38
2022-11-20T22:05:58.073Z,100619.22
2022-11-20T22:08:25.227Z,100622.84
2022-11-20T22:11:00.584Z,100621.44
2022-11-20T22:13:27.928Z,100624.78
2022-11-20T22:16:00.892Z,100625.91
2022-11-20T22:18:27.605Z,100627.56
2022-11-20T22:20:54.199Z,100630.44
2022-11-20T22:23:20.548Z,100634.69
2022-11-20T22:25:46.958Z,100651.03
2022-11-20T22:28:13.338Z,100656.19
2022-11-20T22:30:39.691Z,100653.00
2022-11-20T22:33:11.976Z,100651.88
2022-11-20T22:35:39.815Z,100650.84
2022-11-20T22:38:06.165Z,100660.56
2022-11-20T22:40:32.790Z,100662.28
2022-11-20T22:42:59.153Z,100661.31
2022-11-20T22:45:25.464Z,100665.91
2022-11-20T22:47:51.815Z,100657.53
2022-11-20T22:50:18.136Z,100672.22
2022-11-20T22:52:44.457Z,100666.88
2022-11-20T22:55:15.056Z,100661.19
2022-11-20T22:57:42.739Z,100666.97
2022-11-20T23:00:09.711Z,100660.88
2022-11-20T23:02:36.063Z,100653.91
2022-11-20T23:05:02.485Z,100662.50
2022-11-20T23:07:29.060Z,100669.00
2022-11-20T23:09:55.435Z,100680.44
2022-11-20T23:12:21.777Z,100688.72
2022-11-20T23:14:48.311Z,100688.44
2022-11-20T23:17:14.708Z,100683.94
2022-11-20T23:19:41.112Z,100691.31
2022-11-20T23:22:07.448Z,100695.59
2022-11-20T23:24:33.752Z,100679.78
2022-11-20T23:27:00.349Z,100683.22
2022-11-20T23:29:26.898Z,100698.47
2022-11-20T23:31:53.269Z,100706.28
2022-11-20T23:34:19.586Z,100688.94
2022-11-20T23:36:45.900Z,100703.81
2022-11-20T23:39:12.238Z,100697.41
2022-11-20T23:41:38.599Z,100691.50
2022-11-20T23:44:04.926Z,100691.91
2022-11-20T23:46:31.575Z,100690.06
2022-11-20T23:48:57.883Z,100693.63
2022-11-20T23:51:24.200Z,100688.69
2022-11-20T23:53:50.575Z,100699.38
2022-11-20T23:56:17.003Z,100710.06
2022-11-20T23:58:43.618Z,100703.28
